sensor_id;sensor_type;location;lat;lon;timestamp;temperature;humidity
15656;DHT22;7928;43.614;1.456;2022-12-18T00:02:04;6.10;99.90
15656;DHT22;7928;43.614;1.456;2022-12-18T00:04:31;6.20;99.90
15656;DHT22;7928;43.614;1.456;2022-12-18T00:06:58;6.30;99.90
15656;DHT22;7928;43.614;1.456;2022-12-18T00:09:25;6.20;99.90
15656;DHT22;7928;43.614;1.456;2022-12-18T00:11:52;6.20;99.90
15656;DHT22;7928;43.614;1.456;2022-12-18T00:14:19;6.20;99.90
15656;DHT22;7928;43.614;1.456;2022-12-18T00:16:48;6.10;99.90
15656;DHT22;7928;43.614;1.456;2022-12-18T00:19:15;6.00;99.90
15656;DHT22;7928;43.614;1.456;2022-12-18T00:21:43;6.00;99.90
15656;DHT22;7928;43.614;1.456;2022-12-18T00:24:10;5.90;99.90
15656;DHT22;7928;43.614;1.456;2022-12-18T00:26:38;6.00;99.90
15656;DHT22;7928;43.614;1.456;2022-12-18T00:29:09;6.00;99.90
15656;DHT22;7928;43.614;1.456;2022-12-18T00:31:37;6.10;99.90
15656;DHT22;7928;43.614;1.456;2022-12-18T00:34:06;6.00;99.90
15656;DHT22;7928;43.614;1.456;2022-12-18T00:36:34;6.00;99.90
15656;DHT22;7928;43.614;1.456;2022-12-18T00:39:03;6.00;99.90
15656;DHT22;7928;43.614;1.456;2022-12-18T00:41:30;6.00;99.90
15656;DHT22;7928;43.614;1.456;2022-12-18T00:44:16;6.00;99.90
15656;DHT22;7928;43.614;1.456;2022-12-18T00:46:44;6.00;99.90
15656;DHT22;7928;43.614;1.456;2022-12-18T00:49:18;6.00;99.90
15656;DHT22;7928;43.614;1.456;2022-12-18T00:51:45;5.90;99.90
15656;DHT22;7928;43.614;1.456;2022-12-18T00:54:13;5.80;99.90
15656;DHT22;7928;43.614;1.456;2022-12-18T00:56:40;5.90;99.90
15656;DHT22;7928;43.614;1.456;2022-12-18T00:59:07;5.80;99.90
15656;DHT22;7928;43.614;1.456;2022-12-18T01:01:34;5.80;99.90
15656;DHT22;7928;43.614;1.456;2022-12-18T01:04:02;5.80;99.90
15656;DHT22;7928;43.614;1.456;2022-12-18T01:06:30;5.70;99.90
15656;DHT22;7928;43.614;1.456;2022-12-18T01:08:57;5.90;99.90
15656;DHT22;7928;43.614;1.456;2022-12-18T01:11:25;5.90;99.90
15656;DHT22;7928;43.614;1.456;2022-12-18T01:13:52;5.90;99.90
15656;DHT22;7928;43.614;1.456;2022-12-18T01:16:20;6.00;99.90
15656;DHT22;7928;43.614;1.456;2022-12-18T01:18:50;6.00;99.90
15656;DHT22;7928;43.614;1.456;2022-12-18T01:21:17;6.00;99.90
15656;DHT22;7928;43.614;1.456;2022-12-18T01:23:51;5.90;99.90
15656;DHT22;7928;43.614;1.456;2022-12-18T01:26:19;5.90;99.90
15656;DHT22;7928;43.614;1.456;2022-12-18T01:28:46;5.90;99.90
15656;DHT22;7928;43.614;1.456;2022-12-18T01:31:16;5.90;99.90
15656;DHT22;7928;43.614;1.456;2022-12-18T01:33:43;5.90;99.90
15656;DHT22;7928;43.614;1.456;2022-12-18T01:36:16;5.80;99.90
15656;DHT22;7928;43.614;1.456;2022-12-18T01:38:45;5.80;99.90
15656;DHT22;7928;43.614;1.456;2022-12-18T01:41:14;5.80;99.90
15656;DHT22;7928;43.614;1.456;2022-12-18T01:43:53;5.70;99.90
15656;DHT22;7928;43.614;1.456;2022-12-18T01:46:21;5.60;99.90
15656;DHT22;7928;43.614;1.456;2022-12-18T01:48:51;5.50;99.90
15656;DHT22;7928;43.614;1.456;2022-12-18T01:51:19;5.50;99.90
15656;DHT22;7928;43.614;1.456;2022-12-18T01:53:47;5.40;99.90
15656;DHT22;7928;43.614;1.456;2022-12-18T01:56:17;5.30;99.90
15656;DHT22;7928;43.614;1.456;2022-12-18T01:58:52;5.20;99.90
15656;DHT22;7928;43.614;1.456;2022-12-18T02:01:22;5.10;99.90
15656;DHT22;7928;43.614;1.456;2022-12-18T02:03:50;5.10;99.90
15656;DHT22;7928;43.614;1.456;2022-12-18T02:06:21;5.00;99.90
15656;DHT22;7928;43.614;1.456;2022-12-18T02:09:01;5.00;99.90
15656;DHT22;7928;43.614;1.456;2022-12-18T02:11:39;5.00;99.90
15656;DHT22;7928;43.614;1.456;2022-12-18T02:14:18;5.00;99.90
15656;DHT22;7928;43.614;1.456;2022-12-18T02:16:52;5.00;99.90
15656;DHT22;7928;43.614;1.456;2022-12-18T02:19:39;5.00;99.90
15656;DHT22;7928;43.614;1.456;2022-12-18T02:22:19;5.00;99.90
15656;DHT22;7928;43.614;1.456;2022-12-18T02:24:59;5.00;99.90
15656;DHT22;7928;43.614;1.456;2022-12-18T02:27:29;4.90;99.90
15656;DHT22;7928;43.614;1.456;2022-12-18T02:29:59;4.90;99.90
15656;DHT22;7928;43.614;1.456;2022-12-18T02:32:29;4.80;99.90
15656;DHT22;7928;43.614;1.456;2022-12-18T02:34:58;4.80;99.90
15656;DHT22;7928;43.614;1.456;2022-12-18T02:37:27;4.80;99.90
15656;DHT22;7928;43.614;1.456;2022-12-18T02:39:56;4.70;99.90
15656;DHT22;7928;43.614;1.456;2022-12-18T02:42:24;4.70;99.90
15656;DHT22;7928;43.614;1.456;2022-12-18T02:44:55;4.70;99.90
15656;DHT22;7928;43.614;1.456;2022-12-18T02:47:24;4.80;99.90
15656;DHT22;7928;43.614;1.456;2022-12-18T02:50:00;4.80;99.90
15656;DHT22;7928;43.614;1.456;2022-12-18T02:52:32;4.70;99.90
15656;DHT22;7928;43.614;1.456;2022-12-18T02:55:13;4.70;99.90
15656;DHT22;7928;43.614;1.456;2022-12-18T02:57:46;4.70;99.90
15656;DHT22;7928;43.614;1.456;2022-12-18T03:00:20;4.60;99.90
15656;DHT22;7928;43.614;1.456;2022-12-18T03:02:52;4.60;99.90
15656;DHT22;7928;43.614;1.456;2022-12-18T03:05:23;4.60;99.90
15656;DHT22;7928;43.614;1.456;2022-12-18T03:07:57;4.60;99.90
15656;DHT22;7928;43.614;1.456;2022-12-18T03:10:26;4.60;99.90
15656;DHT22;7928;43.614;1.456;2022-12-18T03:12:59;4.60;99.90
15656;DHT22;7928;43.614;1.456;2022-12-18T03:15:31;4.60;99.90
15656;DHT22;7928;43.614;1.456;2022-12-18T03:18:04;4.60;99.90
15656;DHT22;7928;43.614;1.456;2022-12-18T03:20:34;4.50;99.90
15656;DHT22;7928;43.614;1.456;2022-12-18T03:23:06;4.50;99.90
15656;DHT22;7928;43.614;1.456;2022-12-18T03:25:34;4.50;99.90
15656;DHT22;7928;43.614;1.456;2022-12-18T03:28:06;4.50;99.90
15656;DHT22;7928;43.614;1.456;2022-12-18T03:30:38;4.60;99.90
15656;DHT22;7928;43.614;1.456;2022-12-18T03:33:10;4.60;99.90
15656;DHT22;7928;43.614;1.456;2022-12-18T03:35:41;4.60;99.90
15656;DHT22;7928;43.614;1.456;2022-12-18T03:38:09;4.60;99.90
15656;DHT22;7928;43.614;1.456;2022-12-18T03:40:43;4.50;99.90
15656;DHT22;7928;43.614;1.456;2022-12-18T03:43:17;4.50;99.90
15656;DHT22;7928;43.614;1.456;2022-12-18T03:45:52;4.50;99.90
15656;DHT22;7928;43.614;1.456;2022-12-18T03:48:28;4.50;99.90
15656;DHT22;7928;43.614;1.456;2022-12-18T03:50:57;4.50;99.90
15656;DHT22;7928;43.614;1.456;2022-12-18T03:53:33;4.40;99.90
15656;DHT22;7928;43.614;1.456;2022-12-18T03:56:04;4.40;99.90
15656;DHT22;7928;43.614;1.456;2022-12-18T03:58:33;4.30;99.90
15656;DHT22;7928;43.614;1.456;2022-12-18T04:01:08;4.30;99.90
15656;DHT22;7928;43.614;1.456;2022-12-18T04:03:38;4.30;99.90
15656;DHT22;7928;43.614;1.456;2022-12-18T04:06:06;4.20;99.90
15656;DHT22;7928;43.614;1.456;2022-12-18T04:08:34;4.30;99.90
15656;DHT22;7928;43.614;1.456;2022-12-18T04:11:02;4.20;99.90
15656;DHT22;7928;43.614;1.456;2022-12-18T04:13:31;4.10;99.90
15656;DHT22;7928;43.614;1.456;2022-12-18T04:15:59;4.10;99.90
15656;DHT22;7928;43.614;1.456;2022-12-18T04:18:28;4.10;99.90
15656;DHT22;7928;43.614;1.456;2022-12-18T04:20:55;4.10;99.90
15656;DHT22;7928;43.614;1.456;2022-12-18T04:23:22;4.10;99.90
15656;DHT22;7928;43.614;1.456;2022-12-18T04:25:49;4.00;99.90
15656;DHT22;7928;43.614;1.456;2022-12-18T04:28:16;3.90;99.90
15656;DHT22;7928;43.614;1.456;2022-12-18T04:30:43;3.90;99.90
15656;DHT22;7928;43.614;1.456;2022-12-18T04:33:10;3.90;99.90
15656;DHT22;7928;43.614;1.456;2022-12-18T04:35:39;3.90;99.90
15656;DHT22;7928;43.614;1.456;2022-12-18T04:38:07;3.90;99.90
15656;DHT22;7928;43.614;1.456;2022-12-18T04:40:34;3.90;99.90
15656;DHT22;7928;43.614;1.456;2022-12-18T04:43:02;3.90;99.90
15656;DHT22;7928;43.614;1.456;2022-12-18T04:45:29;3.90;99.90
15656;DHT22;7928;43.614;1.456;2022-12-18T04:47:57;3.90;99.90
15656;DHT22;7928;43.614;1.456;2022-12-18T04:50:24;3.90;99.90
15656;DHT22;7928;43.614;1.456;2022-12-18T04:52:53;3.90;99.90
15656;DHT22;7928;43.614;1.456;2022-12-18T04:55:20;3.80;99.90
15656;DHT22;7928;43.614;1.456;2022-12-18T04:57:47;3.80;99.90
15656;DHT22;7928;43.614;1.456;2022-12-18T05:00:14;3.80;99.90
15656;DHT22;7928;43.614;1.456;2022-12-18T05:02:41;3.80;99.90
15656;DHT22;7928;43.614;1.456;2022-12-18T05:05:09;3.80;99.90
15656;DHT22;7928;43.614;1.456;2022-12-18T05:07:36;3.80;99.90
15656;DHT22;7928;43.614;1.456;2022-12-18T05:10:08;3.70;99.90
15656;DHT22;7928;43.614;1.456;2022-12-18T05:12:35;3.70;99.90
15656;DHT22;7928;43.614;1.456;2022-12-18T05:15:23;3.70;99.90
15656;DHT22;7928;43.614;1.456;2022-12-18T05:17:50;3.70;99.90
15656;DHT22;7928;43.614;1.456;2022-12-18T05:20:18;3.70;99.90
15656;DHT22;7928;43.614;1.456;2022-12-18T05:22:45;3.70;99.90
15656;DHT22;7928;43.614;1.456;2022-12-18T05:25:13;3.60;99.90
15656;DHT22;7928;43.614;1.456;2022-12-18T05:27:40;3.60;99.90
15656;DHT22;7928;43.614;1.456;2022-12-18T05:30:08;3.60;99.90
15656;DHT22;7928;43.614;1.456;2022-12-18T05:32:36;3.60;99.90
15656;DHT22;7928;43.614;1.456;2022-12-18T05:35:04;3.50;99.90
15656;DHT22;7928;43.614;1.456;2022-12-18T05:37:31;3.50;99.90
15656;DHT22;7928;43.614;1.456;2022-12-18T05:39:58;3.40;99.90
15656;DHT22;7928;43.614;1.456;2022-12-18T05:42:27;3.40;99.90
15656;DHT22;7928;43.614;1.456;2022-12-18T05:44:54;3.40;99.90
15656;DHT22;7928;43.614;1.456;2022-12-18T05:47:21;3.40;99.90
15656;DHT22;7928;43.614;1.456;2022-12-18T05:49:48;3.30;99.90
15656;DHT22;7928;43.614;1.456;2022-12-18T05:52:15;3.30;99.90
15656;DHT22;7928;43.614;1.456;2022-12-18T05:54:42;3.30;99.90
15656;DHT22;7928;43.614;1.456;2022-12-18T05:57:09;3.30;99.90
15656;DHT22;7928;43.614;1.456;2022-12-18T05:59:38;3.30;99.90
15656;DHT22;7928;43.614;1.456;2022-12-18T06:02:05;3.30;99.90
15656;DHT22;7928;43.614;1.456;2022-12-18T06:04:32;3.30;99.90
15656;DHT22;7928;43.614;1.456;2022-12-18T06:06:59;3.30;99.90
15656;DHT22;7928;43.614;1.456;2022-12-18T06:09:26;3.20;99.90
15656;DHT22;7928;43.614;1.456;2022-12-18T06:11:53;3.30;99.90
15656;DHT22;7928;43.614;1.456;2022-12-18T06:14:20;3.30;99.90
15656;DHT22;7928;43.614;1.456;2022-12-18T06:16:50;3.20;99.90
15656;DHT22;7928;43.614;1.456;2022-12-18T06:19:17;3.20;99.90
15656;DHT22;7928;43.614;1.456;2022-12-18T06:21:45;3.20;99.90
15656;DHT22;7928;43.614;1.456;2022-12-18T06:24:12;3.20;99.90
15656;DHT22;7928;43.614;1.456;2022-12-18T06:26:39;3.20;99.90
15656;DHT22;7928;43.614;1.456;2022-12-18T06:29:06;3.30;99.90
15656;DHT22;7928;43.614;1.456;2022-12-18T06:31:33;3.20;99.90
15656;DHT22;7928;43.614;1.456;2022-12-18T06:34:04;3.20;99.90
15656;DHT22;7928;43.614;1.456;2022-12-18T06:36:31;3.20;99.90
15656;DHT22;7928;43.614;1.456;2022-12-18T06:38:58;3.20;99.90
15656;DHT22;7928;43.614;1.456;2022-12-18T06:41:25;3.20;99.90
15656;DHT22;7928;43.614;1.456;2022-12-18T06:43:52;3.20;99.90
15656;DHT22;7928;43.614;1.456;2022-12-18T06:46:20;3.20;99.90
15656;DHT22;7928;43.614;1.456;2022-12-18T06:48:48;3.20;99.90
15656;DHT22;7928;43.614;1.456;2022-12-18T06:51:21;3.20;99.90
15656;DHT22;7928;43.614;1.456;2022-12-18T06:53:48;3.20;99.90
15656;DHT22;7928;43.614;1.456;2022-12-18T06:56:15;3.20;99.90
15656;DHT22;7928;43.614;1.456;2022-12-18T06:58:43;3.20;99.90
15656;DHT22;7928;43.614;1.456;2022-12-18T07:01:11;3.20;99.90
15656;DHT22;7928;43.614;1.456;2022-12-18T07:03:38;3.10;99.90
15656;DHT22;7928;43.614;1.456;2022-12-18T07:06:06;3.10;99.90
15656;DHT22;7928;43.614;1.456;2022-12-18T07:08:34;3.10;99.90
15656;DHT22;7928;43.614;1.456;2022-12-18T07:11:03;3.10;99.90
15656;DHT22;7928;43.614;1.456;2022-12-18T07:13:31;3.10;99.90
15656;DHT22;7928;43.614;1.456;2022-12-18T07:16:04;3.10;99.90
15656;DHT22;7928;43.614;1.456;2022-12-18T07:18:31;3.20;99.90
15656;DHT22;7928;43.614;1.456;2022-12-18T07:21:02;3.20;99.90
15656;DHT22;7928;43.614;1.456;2022-12-18T07:23:30;3.20;99.90
15656;DHT22;7928;43.614;1.456;2022-12-18T07:26:03;3.20;99.90
15656;DHT22;7928;43.614;1.456;2022-12-18T07:28:31;3.20;99.90
15656;DHT22;7928;43.614;1.456;2022-12-18T07:30:58;3.20;99.90
15656;DHT22;7928;43.614;1.456;2022-12-18T07:33:26;3.20;99.90
15656;DHT22;7928;43.614;1.456;2022-12-18T07:35:53;3.20;99.90
15656;DHT22;7928;43.614;1.456;2022-12-18T07:38:20;3.20;99.90
15656;DHT22;7928;43.614;1.456;2022-12-18T07:40:47;3.30;99.90
15656;DHT22;7928;43.614;1.456;2022-12-18T07:43:15;3.30;99.90
15656;DHT22;7928;43.614;1.456;2022-12-18T07:45:43;3.30;99.90
15656;DHT22;7928;43.614;1.456;2022-12-18T07:48:10;3.40;99.90
15656;DHT22;7928;43.614;1.456;2022-12-18T07:50:37;3.30;99.90
15656;DHT22;7928;43.614;1.456;2022-12-18T07:53:05;3.50;99.90
15656;DHT22;7928;43.614;1.456;2022-12-18T07:55:32;3.50;99.90
15656;DHT22;7928;43.614;1.456;2022-12-18T07:58:01;3.60;99.90
15656;DHT22;7928;43.614;1.456;2022-12-18T08:00:30;3.60;99.90
15656;DHT22;7928;43.614;1.456;2022-12-18T08:02:57;3.70;99.90
15656;DHT22;7928;43.614;1.456;2022-12-18T08:05:25;3.80;99.90
15656;DHT22;7928;43.614;1.456;2022-12-18T08:07:52;3.80;99.90
15656;DHT22;7928;43.614;1.456;2022-12-18T08:10:20;3.90;99.90
15656;DHT22;7928;43.614;1.456;2022-12-18T08:12:49;4.00;99.90
15656;DHT22;7928;43.614;1.456;2022-12-18T08:15:16;4.00;99.90
15656;DHT22;7928;43.614;1.456;2022-12-18T08:17:45;4.00;99.90
15656;DHT22;7928;43.614;1.456;2022-12-18T08:20:12;4.10;99.90
15656;DHT22;7928;43.614;1.456;2022-12-18T08:22:40;4.20;99.90
15656;DHT22;7928;43.614;1.456;2022-12-18T08:25:08;4.20;99.90
15656;DHT22;7928;43.614;1.456;2022-12-18T08:27:35;4.20;99.90
15656;DHT22;7928;43.614;1.456;2022-12-18T08:30:03;4.30;99.90
15656;DHT22;7928;43.614;1.456;2022-12-18T08:32:30;4.30;99.90
15656;DHT22;7928;43.614;1.456;2022-12-18T08:34:59;4.40;99.90
15656;DHT22;7928;43.614;1.456;2022-12-18T08:37:27;4.50;99.90
15656;DHT22;7928;43.614;1.456;2022-12-18T08:39:54;4.60;99.90
15656;DHT22;7928;43.614;1.456;2022-12-18T08:42:21;4.60;99.90
15656;DHT22;7928;43.614;1.456;2022-12-18T08:45:06;4.60;99.90
15656;DHT22;7928;43.614;1.456;2022-12-18T08:47:33;4.70;99.90
15656;DHT22;7928;43.614;1.456;2022-12-18T08:50:02;4.70;99.90
15656;DHT22;7928;43.614;1.456;2022-12-18T08:52:31;4.80;99.90
15656;DHT22;7928;43.614;1.456;2022-12-18T08:54:58;5.00;99.90
15656;DHT22;7928;43.614;1.456;2022-12-18T08:57:25;5.10;99.90
15656;DHT22;7928;43.614;1.456;2022-12-18T08:59:52;5.40;99.90
15656;DHT22;7928;43.614;1.456;2022-12-18T09:02:19;5.70;99.90
15656;DHT22;7928;43.614;1.456;2022-12-18T09:04:47;6.00;99.90
15656;DHT22;7928;43.614;1.456;2022-12-18T09:07:15;6.40;99.90
15656;DHT22;7928;43.614;1.456;2022-12-18T09:09:42;6.70;99.90
15656;DHT22;7928;43.614;1.456;2022-12-18T09:12:09;7.00;99.90
15656;DHT22;7928;43.614;1.456;2022-12-18T09:14:36;7.30;99.90
15656;DHT22;7928;43.614;1.456;2022-12-18T09:17:03;7.60;99.90
15656;DHT22;7928;43.614;1.456;2022-12-18T09:19:30;7.90;99.90
15656;DHT22;7928;43.614;1.456;2022-12-18T09:21:57;8.20;99.90
15656;DHT22;7928;43.614;1.456;2022-12-18T09:24:26;8.50;99.90
15656;DHT22;7928;43.614;1.456;2022-12-18T09:26:53;8.80;99.90
15656;DHT22;7928;43.614;1.456;2022-12-18T09:29:21;9.10;99.90
15656;DHT22;7928;43.614;1.456;2022-12-18T09:31:48;9.50;99.90
15656;DHT22;7928;43.614;1.456;2022-12-18T09:34:16;9.80;99.90
15656;DHT22;7928;43.614;1.456;2022-12-18T09:36:43;10.30;99.90
15656;DHT22;7928;43.614;1.456;2022-12-18T09:39:10;10.90;99.90
15656;DHT22;7928;43.614;1.456;2022-12-18T09:41:45;12.70;99.90
15656;DHT22;7928;43.614;1.456;2022-12-18T09:44:18;14.80;13.30
15656;DHT22;7928;43.614;1.456;2022-12-18T09:46:50;16.60;1.00
15656;DHT22;7928;43.614;1.456;2022-12-18T09:49:22;17.10;1.00
15656;DHT22;7928;43.614;1.456;2022-12-18T09:51:53;18.50;1.00
15656;DHT22;7928;43.614;1.456;2022-12-18T09:54:23;19.10;1.00
15656;DHT22;7928;43.614;1.456;2022-12-18T09:56:52;19.30;99.90
15656;DHT22;7928;43.614;1.456;2022-12-18T09:59:24;18.70;1.00
15656;DHT22;7928;43.614;1.456;2022-12-18T10:01:52;19.00;1.00
15656;DHT22;7928;43.614;1.456;2022-12-18T10:04:19;19.60;99.90
15656;DHT22;7928;43.614;1.456;2022-12-18T10:06:52;19.00;1.00
15656;DHT22;7928;43.614;1.456;2022-12-18T10:09:28;20.00;99.90
15656;DHT22;7928;43.614;1.456;2022-12-18T10:12:05;19.80;99.90
15656;DHT22;7928;43.614;1.456;2022-12-18T10:14:40;20.10;99.90
15656;DHT22;7928;43.614;1.456;2022-12-18T10:17:14;20.10;1.00
15656;DHT22;7928;43.614;1.456;2022-12-18T10:19:46;20.30;99.90
15656;DHT22;7928;43.614;1.456;2022-12-18T10:22:23;19.50;99.90
15656;DHT22;7928;43.614;1.456;2022-12-18T10:24:58;18.20;1.00
15656;DHT22;7928;43.614;1.456;2022-12-18T10:27:29;16.60;1.00
15656;DHT22;7928;43.614;1.456;2022-12-18T10:29:56;15.80;1.00
15656;DHT22;7928;43.614;1.456;2022-12-18T10:32:25;15.80;1.00
15656;DHT22;7928;43.614;1.456;2022-12-18T10:34:55;17.80;1.00
15656;DHT22;7928;43.614;1.456;2022-12-18T10:37:24;18.80;1.00
15656;DHT22;7928;43.614;1.456;2022-12-18T10:40:07;19.90;99.90
15656;DHT22;7928;43.614;1.456;2022-12-18T10:42:36;20.50;1.00
15656;DHT22;7928;43.614;1.456;2022-12-18T10:45:09;21.00;99.90
15656;DHT22;7928;43.614;1.456;2022-12-18T10:47:40;21.80;1.00
15656;DHT22;7928;43.614;1.456;2022-12-18T10:50:19;22.20;99.90
15656;DHT22;7928;43.614;1.456;2022-12-18T10:52:55;21.70;99.90
15656;DHT22;7928;43.614;1.456;2022-12-18T10:55:22;22.00;65.10
15656;DHT22;7928;43.614;1.456;2022-12-18T10:57:52;22.40;99.90
15656;DHT22;7928;43.614;1.456;2022-12-18T11:00:28;22.60;99.90
15656;DHT22;7928;43.614;1.456;2022-12-18T11:02:56;22.80;99.90
15656;DHT22;7928;43.614;1.456;2022-12-18T11:05:26;22.50;99.90
15656;DHT22;7928;43.614;1.456;2022-12-18T11:07:54;22.40;1.00
15656;DHT22;7928;43.614;1.456;2022-12-18T11:10:25;22.70;1.00
15656;DHT22;7928;43.614;1.456;2022-12-18T11:12:54;23.10;99.90
15656;DHT22;7928;43.614;1.456;2022-12-18T11:15:30;23.60;99.90
15656;DHT22;7928;43.614;1.456;2022-12-18T11:17:57;23.30;99.90
15656;DHT22;7928;43.614;1.456;2022-12-18T11:20:30;21.80;1.00
15656;DHT22;7928;43.614;1.456;2022-12-18T11:22:59;20.60;1.00
15656;DHT22;7928;43.614;1.456;2022-12-18T11:25:31;21.20;17.00
15656;DHT22;7928;43.614;1.456;2022-12-18T11:28:02;22.60;1.00
15656;DHT22;7928;43.614;1.456;2022-12-18T11:30:30;24.00;1.00
15656;DHT22;7928;43.614;1.456;2022-12-18T11:33:03;23.90;95.10
15656;DHT22;7928;43.614;1.456;2022-12-18T11:35:40;25.30;98.90
15656;DHT22;7928;43.614;1.456;2022-12-18T11:38:17;25.00;97.70
15656;DHT22;7928;43.614;1.456;2022-12-18T11:40:50;25.90;96.80
15656;DHT22;7928;43.614;1.456;2022-12-18T11:43:25;25.80;96.50
15656;DHT22;7928;43.614;1.456;2022-12-18T11:45:55;26.00;95.40
15656;DHT22;7928;43.614;1.456;2022-12-18T11:48:26;26.10;95.00
15656;DHT22;7928;43.614;1.456;2022-12-18T11:50:56;25.10;94.80
15656;DHT22;7928;43.614;1.456;2022-12-18T11:53:25;26.30;94.50
15656;DHT22;7928;43.614;1.456;2022-12-18T11:56:02;25.90;94.00
15656;DHT22;7928;43.614;1.456;2022-12-18T11:58:44;24.80;94.60
15656;DHT22;7928;43.614;1.456;2022-12-18T12:01:24;23.70;15.60
15656;DHT22;7928;43.614;1.456;2022-12-18T12:06:55;26.20;94.30
15656;DHT22;7928;43.614;1.456;2022-12-18T12:09:30;25.60;94.60
15656;DHT22;7928;43.614;1.456;2022-12-18T12:12:12;25.30;1.00
15656;DHT22;7928;43.614;1.456;2022-12-18T12:14:48;25.50;94.00
15656;DHT22;7928;43.614;1.456;2022-12-18T12:17:29;25.20;1.00
15656;DHT22;7928;43.614;1.456;2022-12-18T12:20:03;25.80;1.00
15656;DHT22;7928;43.614;1.456;2022-12-18T12:22:37;24.50;1.00
15656;DHT22;7928;43.614;1.456;2022-12-18T12:25:21;22.70;1.00
15656;DHT22;7928;43.614;1.456;2022-12-18T12:28:01;22.00;99.90
15656;DHT22;7928;43.614;1.456;2022-12-18T12:30:42;21.30;1.00
15656;DHT22;7928;43.614;1.456;2022-12-18T12:33:22;19.10;1.00
15656;DHT22;7928;43.614;1.456;2022-12-18T12:35:58;17.10;1.00
15656;DHT22;7928;43.614;1.456;2022-12-18T12:38:30;16.60;1.00
15656;DHT22;7928;43.614;1.456;2022-12-18T12:41:00;18.90;1.00
15656;DHT22;7928;43.614;1.456;2022-12-18T12:43:35;20.60;1.00
15656;DHT22;7928;43.614;1.456;2022-12-18T12:46:06;23.10;10.40
15656;DHT22;7928;43.614;1.456;2022-12-18T12:48:38;23.40;1.00
15656;DHT22;7928;43.614;1.456;2022-12-18T12:51:12;24.30;99.90
15656;DHT22;7928;43.614;1.456;2022-12-18T12:53:41;25.50;99.50
15656;DHT22;7928;43.614;1.456;2022-12-18T12:56:10;24.70;98.70
15656;DHT22;7928;43.614;1.456;2022-12-18T12:58:45;25.20;98.00
15656;DHT22;7928;43.614;1.456;2022-12-18T13:01:20;24.10;1.00
15656;DHT22;7928;43.614;1.456;2022-12-18T13:03:56;24.40;99.90
15656;DHT22;7928;43.614;1.456;2022-12-18T13:06:40;24.40;1.00
15656;DHT22;7928;43.614;1.456;2022-12-18T13:09:09;25.30;97.40
15656;DHT22;7928;43.614;1.456;2022-12-18T13:11:38;25.50;82.80
15656;DHT22;7928;43.614;1.456;2022-12-18T13:14:26;24.80;97.60
15656;DHT22;7928;43.614;1.456;2022-12-18T13:17:16;24.30;1.00
15656;DHT22;7928;43.614;1.456;2022-12-18T13:19:44;23.50;1.00
15656;DHT22;7928;43.614;1.456;2022-12-18T13:22:22;24.00;99.90
15656;DHT22;7928;43.614;1.456;2022-12-18T13:24:50;23.30;54.00
15656;DHT22;7928;43.614;1.456;2022-12-18T13:27:45;24.40;1.00
15656;DHT22;7928;43.614;1.456;2022-12-18T13:33:49;24.30;99.90
15656;DHT22;7928;43.614;1.456;2022-12-18T13:36:28;24.10;1.00
15656;DHT22;7928;43.614;1.456;2022-12-18T13:45:46;24.10;1.00
15656;DHT22;7928;43.614;1.456;2022-12-18T13:48:19;23.80;45.80
15656;DHT22;7928;43.614;1.456;2022-12-18T13:50:59;25.50;1.00
15656;DHT22;7928;43.614;1.456;2022-12-18T13:53:31;24.30;1.00
15656;DHT22;7928;43.614;1.456;2022-12-18T13:55:59;24.90;1.00
15656;DHT22;7928;43.614;1.456;2022-12-18T13:58:27;25.40;99.90
15656;DHT22;7928;43.614;1.456;2022-12-18T14:00:54;25.30;99.90
15656;DHT22;7928;43.614;1.456;2022-12-18T14:03:24;26.40;99.90
15656;DHT22;7928;43.614;1.456;2022-12-18T14:06:00;26.30;95.00
15656;DHT22;7928;43.614;1.456;2022-12-18T14:08:33;26.60;95.00
15656;DHT22;7928;43.614;1.456;2022-12-18T14:11:01;26.60;94.80
15656;DHT22;7928;43.614;1.456;2022-12-18T14:13:31;25.60;1.00
15656;DHT22;7928;43.614;1.456;2022-12-18T14:16:01;25.70;1.00
15656;DHT22;7928;43.614;1.456;2022-12-18T14:18:33;25.90;95.20
15656;DHT22;7928;43.614;1.456;2022-12-18T14:21:05;26.80;94.80
15656;DHT22;7928;43.614;1.456;2022-12-18T14:23:35;25.60;94.70
15656;DHT22;7928;43.614;1.456;2022-12-18T14:26:17;25.30;99.90
15656;DHT22;7928;43.614;1.456;2022-12-18T14:28:45;25.10;1.00
15656;DHT22;7928;43.614;1.456;2022-12-18T14:31:17;25.30;1.00
15656;DHT22;7928;43.614;1.456;2022-12-18T14:33:45;25.90;1.00
15656;DHT22;7928;43.614;1.456;2022-12-18T14:36:17;26.00;95.30
15656;DHT22;7928;43.614;1.456;2022-12-18T14:38:48;25.30;99.90
15656;DHT22;7928;43.614;1.456;2022-12-18T14:41:17;25.40;1.00
15656;DHT22;7928;43.614;1.456;2022-12-18T14:43:46;25.30;1.00
15656;DHT22;7928;43.614;1.456;2022-12-18T14:46:34;24.60;1.00
15656;DHT22;7928;43.614;1.456;2022-12-18T14:49:03;25.50;1.00
15656;DHT22;7928;43.614;1.456;2022-12-18T14:51:33;25.50;99.90
15656;DHT22;7928;43.614;1.456;2022-12-18T14:54:02;24.90;99.90
15656;DHT22;7928;43.614;1.456;2022-12-18T14:56:34;24.30;1.00
15656;DHT22;7928;43.614;1.456;2022-12-18T14:59:03;23.90;61.30
15656;DHT22;7928;43.614;1.456;2022-12-18T15:01:34;23.80;99.90
15656;DHT22;7928;43.614;1.456;2022-12-18T15:04:02;24.20;1.00
15656;DHT22;7928;43.614;1.456;2022-12-18T15:06:34;23.90;1.00
15656;DHT22;7928;43.614;1.456;2022-12-18T15:09:03;23.20;17.10
15656;DHT22;7928;43.614;1.456;2022-12-18T15:11:45;22.60;1.00
15656;DHT22;7928;43.614;1.456;2022-12-18T15:14:32;20.70;99.90
15656;DHT22;7928;43.614;1.456;2022-12-18T15:17:02;19.70;1.00
15656;DHT22;7928;43.614;1.456;2022-12-18T15:19:36;20.60;1.00
15656;DHT22;7928;43.614;1.456;2022-12-18T15:22:25;21.00;1.00
15656;DHT22;7928;43.614;1.456;2022-12-18T15:24:54;20.90;1.00
15656;DHT22;7928;43.614;1.456;2022-12-18T15:27:31;21.10;1.00
15656;DHT22;7928;43.614;1.456;2022-12-18T15:30:17;20.30;1.00
15656;DHT22;7928;43.614;1.456;2022-12-18T15:32:45;17.90;1.00
15656;DHT22;7928;43.614;1.456;2022-12-18T15:35:16;16.50;1.00
15656;DHT22;7928;43.614;1.456;2022-12-18T15:37:45;15.70;8.80
15656;DHT22;7928;43.614;1.456;2022-12-18T15:40:14;15.10;38.50
15656;DHT22;7928;43.614;1.456;2022-12-18T15:42:41;14.90;51.00
15656;DHT22;7928;43.614;1.456;2022-12-18T15:45:27;14.60;67.00
15656;DHT22;7928;43.614;1.456;2022-12-18T15:47:54;14.20;86.00
15656;DHT22;7928;43.614;1.456;2022-12-18T15:50:21;14.00;95.00
15656;DHT22;7928;43.614;1.456;2022-12-18T15:52:51;13.80;99.90
15656;DHT22;7928;43.614;1.456;2022-12-18T15:55:21;13.70;99.90
15656;DHT22;7928;43.614;1.456;2022-12-18T15:58:07;13.50;99.90
15656;DHT22;7928;43.614;1.456;2022-12-18T16:00:36;13.20;99.90
15656;DHT22;7928;43.614;1.456;2022-12-18T16:03:05;13.10;99.90
15656;DHT22;7928;43.614;1.456;2022-12-18T16:05:32;13.10;99.90
15656;DHT22;7928;43.614;1.456;2022-12-18T16:08:01;12.90;99.90
15656;DHT22;7928;43.614;1.456;2022-12-18T16:10:28;12.90;99.90
15656;DHT22;7928;43.614;1.456;2022-12-18T16:12:55;12.80;99.90
15656;DHT22;7928;43.614;1.456;2022-12-18T16:15:22;12.60;99.90
15656;DHT22;7928;43.614;1.456;2022-12-18T16:17:49;12.60;99.90
15656;DHT22;7928;43.614;1.456;2022-12-18T16:20:18;12.60;99.90
15656;DHT22;7928;43.614;1.456;2022-12-18T16:22:47;12.50;99.90
15656;DHT22;7928;43.614;1.456;2022-12-18T16:25:26;12.40;99.90
15656;DHT22;7928;43.614;1.456;2022-12-18T16:27:54;12.30;99.90
15656;DHT22;7928;43.614;1.456;2022-12-18T16:30:22;12.30;99.90
15656;DHT22;7928;43.614;1.456;2022-12-18T16:32:49;12.20;99.90